This is the latest recevied weather packets stored in our database for station/object KC3AWA. If no packets are shown the sender has not sent any weather packets the latest 10 day(s).
| Time | Temp. | Humidity | Pressure | Rain* | Wind** | Luminosity | Snow |
|---|---|---|---|---|---|---|---|
| 1777925466 | 21.67° C | 43% | 1006.9 hPa | 0 mm | - | 657 W/m² | - |
| 1777925163 | 21.67° C | 45% | 1006.9 hPa | 0 mm | - | 177 W/m² | - |
| 1777924859 | 23.33° C | 39% | 1007 hPa | 0 mm | - | 138 W/m² | - |
| 1777924555 | 22.78° C | 42% | 1007.2 hPa | 0 mm | - | 673 W/m² | - |
| 1777924252 | 23.33° C | 39% | 1007.3 hPa | 0 mm | - | 690 W/m² | - |
| 1777923948 | 22.22° C | 45% | 1007.3 hPa | 0 mm | - | 669 W/m² | - |
| 1777923644 | 22.78° C | 42% | 1007.2 hPa | 0 mm | - | 698 W/m² | - |
| 1777923341 | 21.67° C | 42% | 1007.2 hPa | 0 mm | - | 758 W/m² | - |
| 1777923039 | 22.78° C | 40% | 1007.4 hPa | 0 mm | - | 765 W/m² | - |
| 1777922737 | 22.22° C | 42% | 1007.4 hPa | 0 mm | - | 734 W/m² | - |
| 1777922435 | 22.78° C | 37% | 1007.5 hPa | 0 mm | - | 209 W/m² | - |
| 1777922133 | 23.33° C | 38% | 1007.6 hPa | 0 mm | - | 774 W/m² | - |
| 1777921829 | 22.22° C | 41% | 1007.6 hPa | 0 mm | - | 753 W/m² | - |
| 1777921525 | 22.22° C | 37% | 1007.7 hPa | 0 mm | - | 768 W/m² | - |
| 1777921221 | 22.22° C | 37% | 1007.9 hPa | 0 mm | - | 159 W/m² | - |
| 1777920918 | 22.78° C | 35% | 1008.1 hPa | 0 mm | - | 777 W/m² | - |
| 1777920615 | 22.78° C | 36% | 1007.9 hPa | 0 mm | - | 775 W/m² | - |
| 1777920310 | 22.78° C | 35% | 1007.9 hPa | 0 mm | - | 777 W/m² | - |
| 1777920006 | 22.78° C | 36% | 1008.1 hPa | 0 mm | - | 820 W/m² | - |
| 1777919703 | 21.67° C | 40% | 1008.1 hPa | 0 mm | - | 789 W/m² | - |
| 1777919401 | 22.78° C | 38% | 1008.1 hPa | 0 mm | - | 791 W/m² | - |
| 1777919098 | 22.78° C | 36% | 1007.9 hPa | 0 mm | - | 804 W/m² | - |
| 1777918795 | 22.22° C | 38% | 1008.2 hPa | 0 mm | - | 812 W/m² | - |
| 1777918492 | 21.67° C | 40% | 1008.1 hPa | 0 mm | - | 817 W/m² | - |
| 1777918190 | 21.11° C | 39% | 1008.3 hPa | 0 mm | - | 819 W/m² | - |
* Rain latest hour (hover to see other rain measurements)
** Current wind speed in m/s (hover to see current wind gust speed)